sensor_id;sensor_type;location;lat;lon;timestamp;temperature;humidity
14786;DHT22;7484;49.906;9.058;2023-03-01T00:02:19;-1.00;99.90
14786;DHT22;7484;49.906;9.058;2023-03-01T00:04:46;-1.10;99.90
14786;DHT22;7484;49.906;9.058;2023-03-01T00:07:13;-1.10;99.90
14786;DHT22;7484;49.906;9.058;2023-03-01T00:09:40;-1.00;99.90
14786;DHT22;7484;49.906;9.058;2023-03-01T00:12:08;-0.90;99.90
14786;DHT22;7484;49.906;9.058;2023-03-01T00:14:35;-0.80;99.90
14786;DHT22;7484;49.906;9.058;2023-03-01T00:17:02;-0.70;99.90
14786;DHT22;7484;49.906;9.058;2023-03-01T00:19:29;-0.60;99.90
14786;DHT22;7484;49.906;9.058;2023-03-01T00:21:55;-0.50;99.90
14786;DHT22;7484;49.906;9.058;2023-03-01T00:24:22;-0.40;99.90
14786;DHT22;7484;49.906;9.058;2023-03-01T00:26:52;-0.30;99.90
14786;DHT22;7484;49.906;9.058;2023-03-01T00:29:22;-0.10;99.90
14786;DHT22;7484;49.906;9.058;2023-03-01T00:31:48;0.00;99.90
14786;DHT22;7484;49.906;9.058;2023-03-01T00:34:15;0.10;99.90
14786;DHT22;7484;49.906;9.058;2023-03-01T00:36:42;0.10;99.90
14786;DHT22;7484;49.906;9.058;2023-03-01T00:39:12;0.20;99.90
14786;DHT22;7484;49.906;9.058;2023-03-01T00:41:39;0.20;99.90
14786;DHT22;7484;49.906;9.058;2023-03-01T00:44:26;0.10;99.90
14786;DHT22;7484;49.906;9.058;2023-03-01T00:46:54;0.10;99.90
14786;DHT22;7484;49.906;9.058;2023-03-01T00:49:20;0.00;99.90
14786;DHT22;7484;49.906;9.058;2023-03-01T00:51:49;0.00;99.90
14786;DHT22;7484;49.906;9.058;2023-03-01T00:54:16;-0.40;99.90
14786;DHT22;7484;49.906;9.058;2023-03-01T00:56:43;-0.60;99.90
14786;DHT22;7484;49.906;9.058;2023-03-01T00:59:09;-0.90;99.90
14786;DHT22;7484;49.906;9.058;2023-03-01T01:01:37;-0.80;99.90
14786;DHT22;7484;49.906;9.058;2023-03-01T01:04:10;-0.70;99.90
14786;DHT22;7484;49.906;9.058;2023-03-01T01:06:38;-0.70;99.90
14786;DHT22;7484;49.906;9.058;2023-03-01T01:09:08;-0.70;99.90
14786;DHT22;7484;49.906;9.058;2023-03-01T01:11:42;-0.70;99.90
14786;DHT22;7484;49.906;9.058;2023-03-01T01:14:09;-0.70;99.90
14786;DHT22;7484;49.906;9.058;2023-03-01T01:16:37;-0.70;99.90
14786;DHT22;7484;49.906;9.058;2023-03-01T01:19:04;-0.70;99.90
14786;DHT22;7484;49.906;9.058;2023-03-01T01:21:31;-0.80;99.90
14786;DHT22;7484;49.906;9.058;2023-03-01T01:23:58;-0.90;99.90
14786;DHT22;7484;49.906;9.058;2023-03-01T01:26:26;-1.00;99.90
14786;DHT22;7484;49.906;9.058;2023-03-01T01:28:54;-0.90;99.90
14786;DHT22;7484;49.906;9.058;2023-03-01T01:31:22;-1.00;99.90
14786;DHT22;7484;49.906;9.058;2023-03-01T01:33:51;-1.40;99.90
14786;DHT22;7484;49.906;9.058;2023-03-01T01:36:18;-1.40;99.90
14786;DHT22;7484;49.906;9.058;2023-03-01T01:38:45;-1.40;99.90
14786;DHT22;7484;49.906;9.058;2023-03-01T01:41:12;-1.30;99.90
14786;DHT22;7484;49.906;9.058;2023-03-01T01:43:40;-1.30;99.90
14786;DHT22;7484;49.906;9.058;2023-03-01T01:46:16;-1.30;99.90
14786;DHT22;7484;49.906;9.058;2023-03-01T01:48:49;-1.00;99.90
14786;DHT22;7484;49.906;9.058;2023-03-01T01:51:19;-0.90;99.90
14786;DHT22;7484;49.906;9.058;2023-03-01T01:53:53;-0.90;99.90
14786;DHT22;7484;49.906;9.058;2023-03-01T01:56:21;-0.70;99.90
14786;DHT22;7484;49.906;9.058;2023-03-01T01:58:49;-0.70;99.90
14786;DHT22;7484;49.906;9.058;2023-03-01T02:01:17;-0.60;99.90
14786;DHT22;7484;49.906;9.058;2023-03-01T02:03:44;-0.60;99.90
14786;DHT22;7484;49.906;9.058;2023-03-01T02:06:15;-0.50;99.90
14786;DHT22;7484;49.906;9.058;2023-03-01T02:08:47;-0.40;99.90
14786;DHT22;7484;49.906;9.058;2023-03-01T02:11:15;-0.40;99.90
14786;DHT22;7484;49.906;9.058;2023-03-01T02:13:42;-0.30;99.90
14786;DHT22;7484;49.906;9.058;2023-03-01T02:16:11;-0.30;99.90
14786;DHT22;7484;49.906;9.058;2023-03-01T02:18:38;-0.20;99.90
14786;DHT22;7484;49.906;9.058;2023-03-01T02:21:15;-0.10;99.90
14786;DHT22;7484;49.906;9.058;2023-03-01T02:23:43;0.00;99.90
14786;DHT22;7484;49.906;9.058;2023-03-01T02:26:18;-0.10;99.90
14786;DHT22;7484;49.906;9.058;2023-03-01T02:28:47;-0.10;99.90
14786;DHT22;7484;49.906;9.058;2023-03-01T02:31:18;-0.10;99.90
14786;DHT22;7484;49.906;9.058;2023-03-01T02:34:04;-0.20;99.90
14786;DHT22;7484;49.906;9.058;2023-03-01T02:36:35;-0.20;99.90
14786;DHT22;7484;49.906;9.058;2023-03-01T02:39:04;-0.20;99.90
14786;DHT22;7484;49.906;9.058;2023-03-01T02:41:36;-0.20;99.90
14786;DHT22;7484;49.906;9.058;2023-03-01T02:44:05;-0.20;99.90
14786;DHT22;7484;49.906;9.058;2023-03-01T02:46:32;-0.20;99.90
14786;DHT22;7484;49.906;9.058;2023-03-01T02:48:59;-0.30;99.90
14786;DHT22;7484;49.906;9.058;2023-03-01T02:51:34;-0.30;99.90
14786;DHT22;7484;49.906;9.058;2023-03-01T02:54:12;-0.30;99.90
14786;DHT22;7484;49.906;9.058;2023-03-01T02:56:41;-0.50;99.90
14786;DHT22;7484;49.906;9.058;2023-03-01T02:59:09;-0.60;99.90
14786;DHT22;7484;49.906;9.058;2023-03-01T03:01:37;-0.40;99.90
14786;DHT22;7484;49.906;9.058;2023-03-01T03:04:07;-0.30;99.90
14786;DHT22;7484;49.906;9.058;2023-03-01T03:06:35;-0.30;99.90
14786;DHT22;7484;49.906;9.058;2023-03-01T03:09:02;-0.30;99.90
14786;DHT22;7484;49.906;9.058;2023-03-01T03:11:29;-0.40;99.90
14786;DHT22;7484;49.906;9.058;2023-03-01T03:13:57;-0.50;99.90
14786;DHT22;7484;49.906;9.058;2023-03-01T03:16:26;-0.40;99.90
14786;DHT22;7484;49.906;9.058;2023-03-01T03:18:52;-0.60;99.90
14786;DHT22;7484;49.906;9.058;2023-03-01T03:21:19;-0.70;99.90
14786;DHT22;7484;49.906;9.058;2023-03-01T03:23:46;-0.80;99.90
14786;DHT22;7484;49.906;9.058;2023-03-01T03:26:12;-0.70;99.90
14786;DHT22;7484;49.906;9.058;2023-03-01T03:28:40;-0.80;99.90
14786;DHT22;7484;49.906;9.058;2023-03-01T03:31:08;-1.00;99.90
14786;DHT22;7484;49.906;9.058;2023-03-01T03:33:36;-1.10;99.90
14786;DHT22;7484;49.906;9.058;2023-03-01T03:36:03;-1.20;99.90
14786;DHT22;7484;49.906;9.058;2023-03-01T03:38:30;-1.20;99.90
14786;DHT22;7484;49.906;9.058;2023-03-01T03:41:01;-1.10;99.90
14786;DHT22;7484;49.906;9.058;2023-03-01T03:43:30;-1.00;99.90
14786;DHT22;7484;49.906;9.058;2023-03-01T03:45:58;-0.90;99.90
14786;DHT22;7484;49.906;9.058;2023-03-01T03:48:26;-0.90;99.90
14786;DHT22;7484;49.906;9.058;2023-03-01T03:50:55;-0.90;99.90
14786;DHT22;7484;49.906;9.058;2023-03-01T03:53:24;-1.10;99.90
14786;DHT22;7484;49.906;9.058;2023-03-01T03:55:51;-1.10;99.90
14786;DHT22;7484;49.906;9.058;2023-03-01T03:58:19;-1.20;99.90
14786;DHT22;7484;49.906;9.058;2023-03-01T04:00:48;-1.20;99.90
14786;DHT22;7484;49.906;9.058;2023-03-01T04:03:17;-1.10;99.90
14786;DHT22;7484;49.906;9.058;2023-03-01T04:05:46;-1.00;99.90
14786;DHT22;7484;49.906;9.058;2023-03-01T04:08:14;-1.00;99.90
14786;DHT22;7484;49.906;9.058;2023-03-01T04:10:43;-1.00;99.90
14786;DHT22;7484;49.906;9.058;2023-03-01T04:13:12;-0.90;99.90
14786;DHT22;7484;49.906;9.058;2023-03-01T04:15:40;-0.80;99.90
14786;DHT22;7484;49.906;9.058;2023-03-01T04:18:08;-0.70;99.90
14786;DHT22;7484;49.906;9.058;2023-03-01T04:20:36;-0.70;99.90
14786;DHT22;7484;49.906;9.058;2023-03-01T04:23:05;-0.70;99.90
14786;DHT22;7484;49.906;9.058;2023-03-01T04:25:40;-0.60;99.90
14786;DHT22;7484;49.906;9.058;2023-03-01T04:28:08;-0.50;99.90
14786;DHT22;7484;49.906;9.058;2023-03-01T04:30:35;-0.70;99.90
14786;DHT22;7484;49.906;9.058;2023-03-01T04:33:03;-0.90;99.90
14786;DHT22;7484;49.906;9.058;2023-03-01T04:35:31;-1.00;99.90
14786;DHT22;7484;49.906;9.058;2023-03-01T04:37:57;-0.90;99.90
14786;DHT22;7484;49.906;9.058;2023-03-01T04:40:24;-0.80;99.90
14786;DHT22;7484;49.906;9.058;2023-03-01T04:42:52;-0.80;99.90
14786;DHT22;7484;49.906;9.058;2023-03-01T04:45:19;-0.70;99.90
14786;DHT22;7484;49.906;9.058;2023-03-01T04:47:46;-0.60;99.90
14786;DHT22;7484;49.906;9.058;2023-03-01T04:50:15;-0.70;99.90
14786;DHT22;7484;49.906;9.058;2023-03-01T04:52:42;-0.60;99.90
14786;DHT22;7484;49.906;9.058;2023-03-01T04:55:09;-0.70;99.90
14786;DHT22;7484;49.906;9.058;2023-03-01T04:57:36;-0.60;99.90
14786;DHT22;7484;49.906;9.058;2023-03-01T05:00:09;-0.50;99.90
14786;DHT22;7484;49.906;9.058;2023-03-01T05:02:49;-0.50;99.90
14786;DHT22;7484;49.906;9.058;2023-03-01T05:05:20;-0.40;99.90
14786;DHT22;7484;49.906;9.058;2023-03-01T05:07:51;-0.40;99.90
14786;DHT22;7484;49.906;9.058;2023-03-01T05:10:18;-0.60;99.90
14786;DHT22;7484;49.906;9.058;2023-03-01T05:12:45;-0.80;99.90
14786;DHT22;7484;49.906;9.058;2023-03-01T05:15:13;-1.00;99.90
14786;DHT22;7484;49.906;9.058;2023-03-01T05:17:40;-1.10;99.90
14786;DHT22;7484;49.906;9.058;2023-03-01T05:20:08;-1.30;99.90
14786;DHT22;7484;49.906;9.058;2023-03-01T05:22:36;-1.30;99.90
14786;DHT22;7484;49.906;9.058;2023-03-01T05:25:03;-1.40;99.90
14786;DHT22;7484;49.906;9.058;2023-03-01T05:27:30;-1.40;99.90
14786;DHT22;7484;49.906;9.058;2023-03-01T05:29:56;-1.50;99.90
14786;DHT22;7484;49.906;9.058;2023-03-01T05:32:24;-1.50;99.90
14786;DHT22;7484;49.906;9.058;2023-03-01T05:34:51;-1.40;99.90
14786;DHT22;7484;49.906;9.058;2023-03-01T05:37:20;-1.50;99.90
14786;DHT22;7484;49.906;9.058;2023-03-01T05:39:47;-1.40;99.90
14786;DHT22;7484;49.906;9.058;2023-03-01T05:42:15;-1.40;99.90
14786;DHT22;7484;49.906;9.058;2023-03-01T05:44:42;-1.30;99.90
14786;DHT22;7484;49.906;9.058;2023-03-01T05:47:09;-1.40;99.90
14786;DHT22;7484;49.906;9.058;2023-03-01T05:49:37;-1.50;99.90
14786;DHT22;7484;49.906;9.058;2023-03-01T05:52:04;-1.50;99.90
14786;DHT22;7484;49.906;9.058;2023-03-01T05:54:30;-1.30;99.90
14786;DHT22;7484;49.906;9.058;2023-03-01T05:56:58;-1.20;99.90
14786;DHT22;7484;49.906;9.058;2023-03-01T05:59:25;-1.20;99.90
14786;DHT22;7484;49.906;9.058;2023-03-01T06:01:52;-1.10;99.90
14786;DHT22;7484;49.906;9.058;2023-03-01T06:04:19;-1.00;99.90
14786;DHT22;7484;49.906;9.058;2023-03-01T06:06:47;-0.90;99.90
14786;DHT22;7484;49.906;9.058;2023-03-01T06:09:14;-0.80;99.90
14786;DHT22;7484;49.906;9.058;2023-03-01T06:11:41;-0.90;99.90
14786;DHT22;7484;49.906;9.058;2023-03-01T06:14:08;-1.10;99.90
14786;DHT22;7484;49.906;9.058;2023-03-01T06:16:35;-1.30;99.90
14786;DHT22;7484;49.906;9.058;2023-03-01T06:19:02;-1.40;99.90
14786;DHT22;7484;49.906;9.058;2023-03-01T06:21:29;-1.30;99.90
14786;DHT22;7484;49.906;9.058;2023-03-01T06:23:57;-1.30;99.90
14786;DHT22;7484;49.906;9.058;2023-03-01T06:26:24;-1.20;99.90
14786;DHT22;7484;49.906;9.058;2023-03-01T06:28:50;-1.10;99.90
14786;DHT22;7484;49.906;9.058;2023-03-01T06:31:17;-1.00;99.90
14786;DHT22;7484;49.906;9.058;2023-03-01T06:33:44;-1.00;99.90
14786;DHT22;7484;49.906;9.058;2023-03-01T06:36:11;-1.10;99.90
14786;DHT22;7484;49.906;9.058;2023-03-01T06:38:37;-1.00;99.90
14786;DHT22;7484;49.906;9.058;2023-03-01T06:41:07;-1.00;99.90
14786;DHT22;7484;49.906;9.058;2023-03-01T06:43:34;-1.10;99.90
14786;DHT22;7484;49.906;9.058;2023-03-01T06:46:03;-1.10;99.90
14786;DHT22;7484;49.906;9.058;2023-03-01T06:48:32;-1.10;99.90
14786;DHT22;7484;49.906;9.058;2023-03-01T06:50:59;-1.00;99.90
14786;DHT22;7484;49.906;9.058;2023-03-01T06:53:27;-1.00;99.90
14786;DHT22;7484;49.906;9.058;2023-03-01T06:55:54;-0.70;99.90
14786;DHT22;7484;49.906;9.058;2023-03-01T06:58:22;-0.60;99.90
14786;DHT22;7484;49.906;9.058;2023-03-01T07:00:49;-0.50;99.90
14786;DHT22;7484;49.906;9.058;2023-03-01T07:03:16;-0.30;99.90
14786;DHT22;7484;49.906;9.058;2023-03-01T07:05:43;-0.10;99.90
14786;DHT22;7484;49.906;9.058;2023-03-01T07:08:10;-0.10;99.90
14786;DHT22;7484;49.906;9.058;2023-03-01T07:10:37;-0.10;99.90
14786;DHT22;7484;49.906;9.058;2023-03-01T07:13:04;-0.10;99.90
14786;DHT22;7484;49.906;9.058;2023-03-01T07:15:33;0.00;99.90
14786;DHT22;7484;49.906;9.058;2023-03-01T07:18:00;0.20;99.90
14786;DHT22;7484;49.906;9.058;2023-03-01T07:20:27;0.30;99.90
14786;DHT22;7484;49.906;9.058;2023-03-01T07:22:55;0.40;99.90
14786;DHT22;7484;49.906;9.058;2023-03-01T07:25:23;0.60;99.90
14786;DHT22;7484;49.906;9.058;2023-03-01T07:27:50;0.80;99.90
14786;DHT22;7484;49.906;9.058;2023-03-01T07:30:18;1.00;99.90
14786;DHT22;7484;49.906;9.058;2023-03-01T07:32:46;1.10;99.90
14786;DHT22;7484;49.906;9.058;2023-03-01T07:35:13;1.10;99.90
14786;DHT22;7484;49.906;9.058;2023-03-01T07:37:41;1.30;99.90
14786;DHT22;7484;49.906;9.058;2023-03-01T07:40:09;1.30;99.90
14786;DHT22;7484;49.906;9.058;2023-03-01T07:42:36;1.40;99.90
14786;DHT22;7484;49.906;9.058;2023-03-01T07:45:04;1.50;99.90
14786;DHT22;7484;49.906;9.058;2023-03-01T07:47:31;1.50;99.90
14786;DHT22;7484;49.906;9.058;2023-03-01T07:49:59;1.60;99.90
14786;DHT22;7484;49.906;9.058;2023-03-01T07:52:28;1.70;99.90
14786;DHT22;7484;49.906;9.058;2023-03-01T07:54:54;1.70;99.90
14786;DHT22;7484;49.906;9.058;2023-03-01T07:57:21;1.80;99.90
14786;DHT22;7484;49.906;9.058;2023-03-01T07:59:48;1.80;99.90
14786;DHT22;7484;49.906;9.058;2023-03-01T08:02:15;1.90;99.90
14786;DHT22;7484;49.906;9.058;2023-03-01T08:04:41;2.00;99.90
14786;DHT22;7484;49.906;9.058;2023-03-01T08:07:09;2.20;99.90
14786;DHT22;7484;49.906;9.058;2023-03-01T08:09:36;2.30;99.90
14786;DHT22;7484;49.906;9.058;2023-03-01T08:12:04;2.40;99.90
14786;DHT22;7484;49.906;9.058;2023-03-01T08:14:31;2.40;99.90
14786;DHT22;7484;49.906;9.058;2023-03-01T08:16:57;2.40;99.90
14786;DHT22;7484;49.906;9.058;2023-03-01T08:19:24;2.60;99.90
14786;DHT22;7484;49.906;9.058;2023-03-01T08:21:51;2.60;99.90
14786;DHT22;7484;49.906;9.058;2023-03-01T08:24:19;2.60;99.90
14786;DHT22;7484;49.906;9.058;2023-03-01T08:26:45;2.60;99.90
14786;DHT22;7484;49.906;9.058;2023-03-01T08:29:12;2.80;99.90
14786;DHT22;7484;49.906;9.058;2023-03-01T08:31:40;2.90;99.90
14786;DHT22;7484;49.906;9.058;2023-03-01T08:34:08;3.00;99.90
14786;DHT22;7484;49.906;9.058;2023-03-01T08:36:38;3.00;99.90
14786;DHT22;7484;49.906;9.058;2023-03-01T08:39:05;3.00;99.90
14786;DHT22;7484;49.906;9.058;2023-03-01T08:41:33;3.00;99.90
14786;DHT22;7484;49.906;9.058;2023-03-01T08:44:00;3.10;99.90
14786;DHT22;7484;49.906;9.058;2023-03-01T08:46:27;3.20;99.90
14786;DHT22;7484;49.906;9.058;2023-03-01T08:48:54;3.30;99.90
14786;DHT22;7484;49.906;9.058;2023-03-01T08:51:21;3.40;99.90
14786;DHT22;7484;49.906;9.058;2023-03-01T08:53:48;3.60;99.90
14786;DHT22;7484;49.906;9.058;2023-03-01T08:56:16;3.60;99.90
14786;DHT22;7484;49.906;9.058;2023-03-01T08:58:45;3.70;99.90
14786;DHT22;7484;49.906;9.058;2023-03-01T09:01:13;4.00;99.90
14786;DHT22;7484;49.906;9.058;2023-03-01T09:03:41;4.20;99.90
14786;DHT22;7484;49.906;9.058;2023-03-01T09:06:08;4.20;99.90
14786;DHT22;7484;49.906;9.058;2023-03-01T09:08:35;4.10;99.90
14786;DHT22;7484;49.906;9.058;2023-03-01T09:11:03;4.10;99.90
14786;DHT22;7484;49.906;9.058;2023-03-01T09:13:30;4.10;99.90
14786;DHT22;7484;49.906;9.058;2023-03-01T09:15:59;4.20;99.90
14786;DHT22;7484;49.906;9.058;2023-03-01T09:18:26;4.30;99.90
14786;DHT22;7484;49.906;9.058;2023-03-01T09:21:00;4.30;99.90
14786;DHT22;7484;49.906;9.058;2023-03-01T09:23:26;4.30;99.90
14786;DHT22;7484;49.906;9.058;2023-03-01T09:25:53;4.30;99.90
14786;DHT22;7484;49.906;9.058;2023-03-01T09:28:20;4.30;99.90
14786;DHT22;7484;49.906;9.058;2023-03-01T09:30:48;4.50;99.90
14786;DHT22;7484;49.906;9.058;2023-03-01T09:33:16;4.50;99.90
14786;DHT22;7484;49.906;9.058;2023-03-01T09:35:43;4.60;99.90
14786;DHT22;7484;49.906;9.058;2023-03-01T09:38:12;4.80;99.90
14786;DHT22;7484;49.906;9.058;2023-03-01T09:40:42;4.90;99.90
14786;DHT22;7484;49.906;9.058;2023-03-01T09:43:17;5.00;99.90
14786;DHT22;7484;49.906;9.058;2023-03-01T09:45:45;5.30;99.90
14786;DHT22;7484;49.906;9.058;2023-03-01T09:48:18;5.50;99.90
14786;DHT22;7484;49.906;9.058;2023-03-01T09:50:47;5.60;99.90
14786;DHT22;7484;49.906;9.058;2023-03-01T09:53:17;5.80;99.90
14786;DHT22;7484;49.906;9.058;2023-03-01T09:55:47;6.00;99.90
14786;DHT22;7484;49.906;9.058;2023-03-01T09:58:35;6.10;99.70
14786;DHT22;7484;49.906;9.058;2023-03-01T10:01:16;6.20;99.30
14786;DHT22;7484;49.906;9.058;2023-03-01T10:04:00;6.30;99.00
14786;DHT22;7484;49.906;9.058;2023-03-01T10:06:28;6.50;99.20
14786;DHT22;7484;49.906;9.058;2023-03-01T10:08:57;6.80;98.20
14786;DHT22;7484;49.906;9.058;2023-03-01T10:11:26;6.80;97.80
14786;DHT22;7484;49.906;9.058;2023-03-01T10:13:58;6.90;97.60
14786;DHT22;7484;49.906;9.058;2023-03-01T10:16:32;7.20;97.00
14786;DHT22;7484;49.906;9.058;2023-03-01T10:19:04;7.20;96.10
14786;DHT22;7484;49.906;9.058;2023-03-01T10:21:34;7.30;95.50
14786;DHT22;7484;49.906;9.058;2023-03-01T10:24:10;7.50;95.60
14786;DHT22;7484;49.906;9.058;2023-03-01T10:26:46;7.70;95.20
14786;DHT22;7484;49.906;9.058;2023-03-01T10:29:14;7.90;94.30
14786;DHT22;7484;49.906;9.058;2023-03-01T10:31:43;8.10;94.00
14786;DHT22;7484;49.906;9.058;2023-03-01T10:34:14;8.20;93.80
14786;DHT22;7484;49.906;9.058;2023-03-01T10:36:47;8.20;93.30
14786;DHT22;7484;49.906;9.058;2023-03-01T10:39:16;8.40;93.20
14786;DHT22;7484;49.906;9.058;2023-03-01T10:41:58;8.60;92.50
14786;DHT22;7484;49.906;9.058;2023-03-01T10:44:45;8.60;91.60
14786;DHT22;7484;49.906;9.058;2023-03-01T10:47:15;8.80;91.40
14786;DHT22;7484;49.906;9.058;2023-03-01T10:50:01;8.90;90.80
14786;DHT22;7484;49.906;9.058;2023-03-01T10:52:31;9.10;90.60
14786;DHT22;7484;49.906;9.058;2023-03-01T10:55:00;9.20;90.10
14786;DHT22;7484;49.906;9.058;2023-03-01T10:57:31;9.30;90.00
14786;DHT22;7484;49.906;9.058;2023-03-01T11:00:15;9.40;88.90
14786;DHT22;7484;49.906;9.058;2023-03-01T11:02:43;9.50;87.60
14786;DHT22;7484;49.906;9.058;2023-03-01T11:05:18;9.50;86.70
14786;DHT22;7484;49.906;9.058;2023-03-01T11:07:49;9.50;85.30
14786;DHT22;7484;49.906;9.058;2023-03-01T11:10:18;9.60;85.20
14786;DHT22;7484;49.906;9.058;2023-03-01T11:12:45;9.70;86.40
14786;DHT22;7484;49.906;9.058;2023-03-01T11:15:22;10.10;85.10
14786;DHT22;7484;49.906;9.058;2023-03-01T11:17:49;10.20;81.90
14786;DHT22;7484;49.906;9.058;2023-03-01T11:20:27;10.30;81.00
14786;DHT22;7484;49.906;9.058;2023-03-01T11:22:59;10.30;80.80
14786;DHT22;7484;49.906;9.058;2023-03-01T11:25:29;10.60;80.30
14786;DHT22;7484;49.906;9.058;2023-03-01T11:27:57;10.60;78.80
14786;DHT22;7484;49.906;9.058;2023-03-01T11:30:28;10.70;77.90
14786;DHT22;7484;49.906;9.058;2023-03-01T11:33:07;10.60;77.90
14786;DHT22;7484;49.906;9.058;2023-03-01T11:35:41;10.70;77.20
14786;DHT22;7484;49.906;9.058;2023-03-01T11:38:19;10.60;76.80
14786;DHT22;7484;49.906;9.058;2023-03-01T11:40:52;10.80;78.60
14786;DHT22;7484;49.906;9.058;2023-03-01T11:43:25;11.10;77.20
14786;DHT22;7484;49.906;9.058;2023-03-01T11:49:04;11.20;75.30
14786;DHT22;7484;49.906;9.058;2023-03-01T11:51:45;11.30;74.80
14786;DHT22;7484;49.906;9.058;2023-03-01T11:54:21;11.60;73.20
14786;DHT22;7484;49.906;9.058;2023-03-01T11:56:54;11.70;72.60
14786;DHT22;7484;49.906;9.058;2023-03-01T11:59:45;12.00;72.60
14786;DHT22;7484;49.906;9.058;2023-03-01T12:02:40;11.90;71.40
14786;DHT22;7484;49.906;9.058;2023-03-01T12:05:30;11.40;72.30
14786;DHT22;7484;49.906;9.058;2023-03-01T12:08:08;11.50;73.20
14786;DHT22;7484;49.906;9.058;2023-03-01T12:10:43;11.80;70.20
14786;DHT22;7484;49.906;9.058;2023-03-01T12:13:26;12.00;70.20
14786;DHT22;7484;49.906;9.058;2023-03-01T12:16:23;12.20;70.30
14786;DHT22;7484;49.906;9.058;2023-03-01T12:19:12;12.30;69.10
14786;DHT22;7484;49.906;9.058;2023-03-01T12:21:55;12.30;69.20
14786;DHT22;7484;49.906;9.058;2023-03-01T12:24:49;12.20;68.20
14786;DHT22;7484;49.906;9.058;2023-03-01T12:27:28;12.50;68.60
14786;DHT22;7484;49.906;9.058;2023-03-01T12:30:05;12.50;66.70
14786;DHT22;7484;49.906;9.058;2023-03-01T12:32:46;12.80;67.50
14786;DHT22;7484;49.906;9.058;2023-03-01T12:35:29;13.30;66.20
14786;DHT22;7484;49.906;9.058;2023-03-01T12:38:06;13.00;65.40
14786;DHT22;7484;49.906;9.058;2023-03-01T12:41:01;12.60;66.00
14786;DHT22;7484;49.906;9.058;2023-03-01T12:43:41;12.50;66.60
14786;DHT22;7484;49.906;9.058;2023-03-01T12:46:23;12.60;65.80
14786;DHT22;7484;49.906;9.058;2023-03-01T12:49:00;12.80;65.30
14786;DHT22;7484;49.906;9.058;2023-03-01T12:51:31;13.00;65.00
14786;DHT22;7484;49.906;9.058;2023-03-01T12:54:02;12.80;64.90
14786;DHT22;7484;49.906;9.058;2023-03-01T12:56:36;12.50;65.60
14786;DHT22;7484;49.906;9.058;2023-03-01T12:59:11;12.80;64.40
14786;DHT22;7484;49.906;9.058;2023-03-01T13:01:45;13.00;63.60
14786;DHT22;7484;49.906;9.058;2023-03-01T13:04:25;13.20;63.80
14786;DHT22;7484;49.906;9.058;2023-03-01T13:07:02;13.10;63.60
14786;DHT22;7484;49.906;9.058;2023-03-01T13:09:36;13.30;63.50
14786;DHT22;7484;49.906;9.058;2023-03-01T13:12:42;13.50;63.30
14786;DHT22;7484;49.906;9.058;2023-03-01T13:15:32;13.80;62.60
14786;DHT22;7484;49.906;9.058;2023-03-01T13:18:00;14.00;61.40
14786;DHT22;7484;49.906;9.058;2023-03-01T13:20:30;14.10;60.80
14786;DHT22;7484;49.906;9.058;2023-03-01T13:23:05;14.30;60.50
14786;DHT22;7484;49.906;9.058;2023-03-01T13:25:32;14.50;60.50
14786;DHT22;7484;49.906;9.058;2023-03-01T13:31:02;14.70;60.00
14786;DHT22;7484;49.906;9.058;2023-03-01T13:33:40;15.00;60.00
14786;DHT22;7484;49.906;9.058;2023-03-01T13:36:09;15.20;59.00
14786;DHT22;7484;49.906;9.058;2023-03-01T13:38:47;14.50;59.70
14786;DHT22;7484;49.906;9.058;2023-03-01T13:41:16;14.50;59.30
14786;DHT22;7484;49.906;9.058;2023-03-01T13:43:44;14.60;59.30
14786;DHT22;7484;49.906;9.058;2023-03-01T13:46:17;14.40;59.40
14786;DHT22;7484;49.906;9.058;2023-03-01T13:48:45;14.50;58.70
14786;DHT22;7484;49.906;9.058;2023-03-01T13:51:14;15.00;58.40
14786;DHT22;7484;49.906;9.058;2023-03-01T13:53:44;15.20;57.80
14786;DHT22;7484;49.906;9.058;2023-03-01T13:56:13;15.20;57.40
14786;DHT22;7484;49.906;9.058;2023-03-01T13:58:48;15.30;56.60
14786;DHT22;7484;49.906;9.058;2023-03-01T14:01:26;15.20;57.30
14786;DHT22;7484;49.906;9.058;2023-03-01T14:03:54;15.40;56.80
14786;DHT22;7484;49.906;9.058;2023-03-01T14:06:23;15.20;56.50
14786;DHT22;7484;49.906;9.058;2023-03-01T14:09:00;15.50;56.80
14786;DHT22;7484;49.906;9.058;2023-03-01T14:12:04;15.90;55.70
14786;DHT22;7484;49.906;9.058;2023-03-01T14:14:46;15.70;55.70
14786;DHT22;7484;49.906;9.058;2023-03-01T14:20:21;14.50;57.10
14786;DHT22;7484;49.906;9.058;2023-03-01T14:22:50;13.40;58.60
14786;DHT22;7484;49.906;9.058;2023-03-01T14:25:24;12.60;59.20
14786;DHT22;7484;49.906;9.058;2023-03-01T14:27:55;12.20;60.80
14786;DHT22;7484;49.906;9.058;2023-03-01T14:30:24;12.20;61.70
14786;DHT22;7484;49.906;9.058;2023-03-01T14:32:56;12.10;61.00
14786;DHT22;7484;49.906;9.058;2023-03-01T14:35:25;12.10;61.80
14786;DHT22;7484;49.906;9.058;2023-03-01T14:37:52;12.40;61.60
14786;DHT22;7484;49.906;9.058;2023-03-01T14:40:26;12.90;61.00
14786;DHT22;7484;49.906;9.058;2023-03-01T14:42:54;13.00;59.70
14786;DHT22;7484;49.906;9.058;2023-03-01T14:45:23;13.20;59.60
14786;DHT22;7484;49.906;9.058;2023-03-01T14:47:51;13.40;59.90
14786;DHT22;7484;49.906;9.058;2023-03-01T14:50:23;13.90;59.40
14786;DHT22;7484;49.906;9.058;2023-03-01T14:52:53;14.20;58.60
14786;DHT22;7484;49.906;9.058;2023-03-01T14:55:22;14.60;58.50
14786;DHT22;7484;49.906;9.058;2023-03-01T14:57:51;14.60;58.50
14786;DHT22;7484;49.906;9.058;2023-03-01T15:00:20;14.50;58.30
14786;DHT22;7484;49.906;9.058;2023-03-01T15:02:49;14.50;58.20
14786;DHT22;7484;49.906;9.058;2023-03-01T15:05:18;14.40;58.50
14786;DHT22;7484;49.906;9.058;2023-03-01T15:07:51;14.40;58.40
14786;DHT22;7484;49.906;9.058;2023-03-01T15:10:20;14.50;58.40
14786;DHT22;7484;49.906;9.058;2023-03-01T15:12:47;14.70;58.00
14786;DHT22;7484;49.906;9.058;2023-03-01T15:15:33;15.50;57.30
14786;DHT22;7484;49.906;9.058;2023-03-01T15:18:02;16.20;56.40
14786;DHT22;7484;49.906;9.058;2023-03-01T15:20:30;16.50;55.60
14786;DHT22;7484;49.906;9.058;2023-03-01T15:23:02;17.00;55.60
14786;DHT22;7484;49.906;9.058;2023-03-01T15:25:32;17.40;55.10
14786;DHT22;7484;49.906;9.058;2023-03-01T15:28:01;17.80;55.50
14786;DHT22;7484;49.906;9.058;2023-03-01T15:30:32;18.10;54.40
14786;DHT22;7484;49.906;9.058;2023-03-01T15:33:27;18.10;54.10
14786;DHT22;7484;49.906;9.058;2023-03-01T15:35:55;17.70;54.90
14786;DHT22;7484;49.906;9.058;2023-03-01T15:38:34;17.20;55.40
14786;DHT22;7484;49.906;9.058;2023-03-01T15:41:19;16.80;55.70
14786;DHT22;7484;49.906;9.058;2023-03-01T15:43:48;15.60;56.50
14786;DHT22;7484;49.906;9.058;2023-03-01T15:46:27;14.30;58.60
14786;DHT22;7484;49.906;9.058;2023-03-01T15:48:56;13.40;61.10
14786;DHT22;7484;49.906;9.058;2023-03-01T15:51:32;12.50;62.80
14786;DHT22;7484;49.906;9.058;2023-03-01T15:54:04;11.90;65.30
14786;DHT22;7484;49.906;9.058;2023-03-01T15:56:32;11.50;66.90
14786;DHT22;7484;49.906;9.058;2023-03-01T15:59:00;11.00;68.50
14786;DHT22;7484;49.906;9.058;2023-03-01T16:01:28;10.70;70.10
14786;DHT22;7484;49.906;9.058;2023-03-01T16:03:54;10.50;71.50
14786;DHT22;7484;49.906;9.058;2023-03-01T16:06:22;10.40;72.30
14786;DHT22;7484;49.906;9.058;2023-03-01T16:08:49;10.30;73.10
14786;DHT22;7484;49.906;9.058;2023-03-01T16:11:19;10.10;73.70
14786;DHT22;7484;49.906;9.058;2023-03-01T16:13:46;9.90;75.90
14786;DHT22;7484;49.906;9.058;2023-03-01T16:16:14;9.80;76.60
14786;DHT22;7484;49.906;9.058;2023-03-01T16:18:43;9.80;76.90
14786;DHT22;7484;49.906;9.058;2023-03-01T16:21:21;9.70;77.60